sensor_id;sensor_type;location;lat;lon;timestamp;temperature;humidity
71304;DHT22;59091;47.446;19.148;2023-10-31T00:01:05;15.34;70.58
71304;DHT22;59091;47.446;19.148;2023-10-31T00:03:31;15.34;70.62
71304;DHT22;59091;47.446;19.148;2023-10-31T00:05:57;15.34;70.85
71304;DHT22;59091;47.446;19.148;2023-10-31T00:08:22;15.27;70.88
71304;DHT22;59091;47.446;19.148;2023-10-31T00:10:49;15.31;70.87
71304;DHT22;59091;47.446;19.148;2023-10-31T00:13:15;15.25;70.75
71304;DHT22;59091;47.446;19.148;2023-10-31T00:15:40;15.25;70.65
71304;DHT22;59091;47.446;19.148;2023-10-31T00:18:06;15.25;70.80
71304;DHT22;59091;47.446;19.148;2023-10-31T00:20:31;15.17;70.25
71304;DHT22;59091;47.446;19.148;2023-10-31T00:22:56;15.21;70.12
71304;DHT22;59091;47.446;19.148;2023-10-31T00:25:22;15.21;70.23
71304;DHT22;59091;47.446;19.148;2023-10-31T00:27:47;15.17;70.28
71304;DHT22;59091;47.446;19.148;2023-10-31T00:30:13;15.21;70.22
71304;DHT22;59091;47.446;19.148;2023-10-31T00:32:38;15.20;70.11
71304;DHT22;59091;47.446;19.148;2023-10-31T00:35:04;15.18;70.22
71304;DHT22;59091;47.446;19.148;2023-10-31T00:37:30;15.18;70.39
71304;DHT22;59091;47.446;19.148;2023-10-31T00:39:55;15.10;70.53
71304;DHT22;59091;47.446;19.148;2023-10-31T00:42:21;15.07;70.71
71304;DHT22;59091;47.446;19.148;2023-10-31T00:44:46;15.05;70.78
71304;DHT22;59091;47.446;19.148;2023-10-31T00:47:11;15.04;70.78
71304;DHT22;59091;47.446;19.148;2023-10-31T00:49:37;14.98;70.89
71304;DHT22;59091;47.446;19.148;2023-10-31T00:52:03;14.98;71.00
71304;DHT22;59091;47.446;19.148;2023-10-31T00:54:28;14.91;71.08
71304;DHT22;59091;47.446;19.148;2023-10-31T00:56:54;14.91;71.09
71304;DHT22;59091;47.446;19.148;2023-10-31T00:59:19;14.84;71.21
71304;DHT22;59091;47.446;19.148;2023-10-31T01:01:45;14.81;71.44
71304;DHT22;59091;47.446;19.148;2023-10-31T01:04:10;14.76;71.27
71304;DHT22;59091;47.446;19.148;2023-10-31T01:06:43;14.76;71.04
71304;DHT22;59091;47.446;19.148;2023-10-31T01:09:09;14.71;71.37
71304;DHT22;59091;47.446;19.148;2023-10-31T01:11:35;14.73;71.46
71304;DHT22;59091;47.446;19.148;2023-10-31T01:14:01;14.70;71.44
71304;DHT22;59091;47.446;19.148;2023-10-31T01:16:26;14.69;71.38
71304;DHT22;59091;47.446;19.148;2023-10-31T01:18:52;14.67;71.40
71304;DHT22;59091;47.446;19.148;2023-10-31T01:21:17;14.66;71.51
71304;DHT22;59091;47.446;19.148;2023-10-31T01:23:43;14.62;71.29
71304;DHT22;59091;47.446;19.148;2023-10-31T01:26:08;14.59;71.41
71304;DHT22;59091;47.446;19.148;2023-10-31T01:28:34;14.60;71.41
71304;DHT22;59091;47.446;19.148;2023-10-31T01:30:59;14.62;71.51
71304;DHT22;59091;47.446;19.148;2023-10-31T01:33:25;14.56;71.50
71304;DHT22;59091;47.446;19.148;2023-10-31T01:35:51;14.47;71.92
71304;DHT22;59091;47.446;19.148;2023-10-31T01:38:16;14.47;71.66
71304;DHT22;59091;47.446;19.148;2023-10-31T01:40:42;14.49;71.57
71304;DHT22;59091;47.446;19.148;2023-10-31T01:43:07;14.47;71.77
71304;DHT22;59091;47.446;19.148;2023-10-31T01:45:33;14.47;71.64
71304;DHT22;59091;47.446;19.148;2023-10-31T01:47:58;14.46;71.73
71304;DHT22;59091;47.446;19.148;2023-10-31T01:50:24;14.46;71.36
71304;DHT22;59091;47.446;19.148;2023-10-31T01:52:50;14.52;71.62
71304;DHT22;59091;47.446;19.148;2023-10-31T01:55:16;14.46;71.66
71304;DHT22;59091;47.446;19.148;2023-10-31T01:57:46;14.46;71.54
71304;DHT22;59091;47.446;19.148;2023-10-31T02:00:12;14.39;72.05
71304;DHT22;59091;47.446;19.148;2023-10-31T02:02:40;14.44;71.87
71304;DHT22;59091;47.446;19.148;2023-10-31T02:05:08;14.46;71.96
71304;DHT22;59091;47.446;19.148;2023-10-31T02:07:33;14.50;71.75
71304;DHT22;59091;47.446;19.148;2023-10-31T02:09:59;14.43;72.05
71304;DHT22;59091;47.446;19.148;2023-10-31T02:12:34;14.42;71.65
71304;DHT22;59091;47.446;19.148;2023-10-31T02:15:00;14.44;71.47
71304;DHT22;59091;47.446;19.148;2023-10-31T02:17:26;14.50;71.28
71304;DHT22;59091;47.446;19.148;2023-10-31T02:19:51;14.49;71.22
71304;DHT22;59091;47.446;19.148;2023-10-31T02:22:16;14.37;71.29
71304;DHT22;59091;47.446;19.148;2023-10-31T02:24:42;14.43;71.40
71304;DHT22;59091;47.446;19.148;2023-10-31T02:27:07;14.42;71.31
71304;DHT22;59091;47.446;19.148;2023-10-31T02:29:33;14.55;70.89
71304;DHT22;59091;47.446;19.148;2023-10-31T02:31:58;14.49;70.83
71304;DHT22;59091;47.446;19.148;2023-10-31T02:34:24;14.63;70.45
71304;DHT22;59091;47.446;19.148;2023-10-31T02:36:51;14.69;70.20
71304;DHT22;59091;47.446;19.148;2023-10-31T02:39:17;14.69;70.04
71304;DHT22;59091;47.446;19.148;2023-10-31T02:41:42;14.62;70.03
71304;DHT22;59091;47.446;19.148;2023-10-31T02:44:08;14.76;69.63
71304;DHT22;59091;47.446;19.148;2023-10-31T02:46:37;14.81;69.47
71304;DHT22;59091;47.446;19.148;2023-10-31T02:49:03;14.74;69.40
71304;DHT22;59091;47.446;19.148;2023-10-31T02:51:29;14.79;69.19
71304;DHT22;59091;47.446;19.148;2023-10-31T02:53:54;14.81;69.02
71304;DHT22;59091;47.446;19.148;2023-10-31T02:56:19;14.85;68.93
71304;DHT22;59091;47.446;19.148;2023-10-31T02:58:45;14.84;68.64
71304;DHT22;59091;47.446;19.148;2023-10-31T03:01:11;14.91;68.45
71304;DHT22;59091;47.446;19.148;2023-10-31T03:03:36;15.00;68.37
71304;DHT22;59091;47.446;19.148;2023-10-31T03:06:02;15.00;68.06
71304;DHT22;59091;47.446;19.148;2023-10-31T03:08:27;15.05;67.94
71304;DHT22;59091;47.446;19.148;2023-10-31T03:10:53;15.04;67.65
71304;DHT22;59091;47.446;19.148;2023-10-31T03:13:19;15.02;67.48
71304;DHT22;59091;47.446;19.148;2023-10-31T03:15:46;15.11;67.43
71304;DHT22;59091;47.446;19.148;2023-10-31T03:18:12;15.17;67.26
71304;DHT22;59091;47.446;19.148;2023-10-31T03:20:39;15.21;67.06
71304;DHT22;59091;47.446;19.148;2023-10-31T03:23:05;15.24;67.00
71304;DHT22;59091;47.446;19.148;2023-10-31T03:25:30;15.28;67.11
71304;DHT22;59091;47.446;19.148;2023-10-31T03:27:55;15.30;67.23
71304;DHT22;59091;47.446;19.148;2023-10-31T03:30:21;15.31;67.90
71304;DHT22;59091;47.446;19.148;2023-10-31T03:32:46;15.14;68.86
71304;DHT22;59091;47.446;19.148;2023-10-31T03:35:12;15.21;68.31
71304;DHT22;59091;47.446;19.148;2023-10-31T03:37:37;15.25;68.70
71304;DHT22;59091;47.446;19.148;2023-10-31T03:40:08;15.20;69.16
71304;DHT22;59091;47.446;19.148;2023-10-31T03:42:33;15.05;69.08
71304;DHT22;59091;47.446;19.148;2023-10-31T03:44:59;15.15;69.04
71304;DHT22;59091;47.446;19.148;2023-10-31T03:47:24;15.17;69.06
71304;DHT22;59091;47.446;19.148;2023-10-31T03:49:49;15.12;69.65
71304;DHT22;59091;47.446;19.148;2023-10-31T03:52:15;15.20;69.24
71304;DHT22;59091;47.446;19.148;2023-10-31T03:54:40;15.24;69.76
71304;DHT22;59091;47.446;19.148;2023-10-31T03:57:06;15.18;70.70
71304;DHT22;59091;47.446;19.148;2023-10-31T03:59:31;15.21;70.49
71304;DHT22;59091;47.446;19.148;2023-10-31T04:01:56;15.18;71.40
71304;DHT22;59091;47.446;19.148;2023-10-31T04:04:22;15.15;71.99
71304;DHT22;59091;47.446;19.148;2023-10-31T04:06:47;15.01;72.85
71304;DHT22;59091;47.446;19.148;2023-10-31T04:09:12;14.97;72.74
71304;DHT22;59091;47.446;19.148;2023-10-31T04:11:39;15.01;73.02
71304;DHT22;59091;47.446;19.148;2023-10-31T04:14:06;14.97;73.30
71304;DHT22;59091;47.446;19.148;2023-10-31T04:16:32;14.77;73.92
71304;DHT22;59091;47.446;19.148;2023-10-31T04:18:57;14.74;74.00
71304;DHT22;59091;47.446;19.148;2023-10-31T04:21:23;14.74;73.91
71304;DHT22;59091;47.446;19.148;2023-10-31T04:23:48;14.71;73.72
71304;DHT22;59091;47.446;19.148;2023-10-31T04:26:13;14.70;73.99
71304;DHT22;59091;47.446;19.148;2023-10-31T04:28:39;14.70;74.25
71304;DHT22;59091;47.446;19.148;2023-10-31T04:31:05;14.79;73.71
71304;DHT22;59091;47.446;19.148;2023-10-31T04:33:30;14.79;73.39
71304;DHT22;59091;47.446;19.148;2023-10-31T04:35:55;14.70;73.19
71304;DHT22;59091;47.446;19.148;2023-10-31T04:38:21;14.63;73.27
71304;DHT22;59091;47.446;19.148;2023-10-31T04:40:46;14.76;72.97
71304;DHT22;59091;47.446;19.148;2023-10-31T04:43:12;14.84;72.85
71304;DHT22;59091;47.446;19.148;2023-10-31T04:45:37;14.88;73.12
71304;DHT22;59091;47.446;19.148;2023-10-31T04:48:03;14.93;73.99
71304;DHT22;59091;47.446;19.148;2023-10-31T04:50:28;14.97;74.27
71304;DHT22;59091;47.446;19.148;2023-10-31T04:52:53;14.97;74.25
71304;DHT22;59091;47.446;19.148;2023-10-31T04:55:19;15.00;74.36
71304;DHT22;59091;47.446;19.148;2023-10-31T04:57:44;15.00;74.93
71304;DHT22;59091;47.446;19.148;2023-10-31T05:00:10;14.94;75.09
71304;DHT22;59091;47.446;19.148;2023-10-31T05:02:36;14.95;74.83
71304;DHT22;59091;47.446;19.148;2023-10-31T05:05:01;14.97;74.97
71304;DHT22;59091;47.446;19.148;2023-10-31T05:07:27;14.97;74.78
71304;DHT22;59091;47.446;19.148;2023-10-31T05:09:52;14.98;74.86
71304;DHT22;59091;47.446;19.148;2023-10-31T05:12:18;14.97;74.91
71304;DHT22;59091;47.446;19.148;2023-10-31T05:14:43;15.00;74.94
71304;DHT22;59091;47.446;19.148;2023-10-31T05:17:08;14.95;75.15
71304;DHT22;59091;47.446;19.148;2023-10-31T05:19:34;14.95;75.22
71304;DHT22;59091;47.446;19.148;2023-10-31T05:21:59;14.94;75.15
71304;DHT22;59091;47.446;19.148;2023-10-31T05:24:25;14.93;74.76
71304;DHT22;59091;47.446;19.148;2023-10-31T05:26:51;14.93;74.62
71304;DHT22;59091;47.446;19.148;2023-10-31T05:29:17;14.90;74.76
71304;DHT22;59091;47.446;19.148;2023-10-31T05:31:42;14.87;74.55
71304;DHT22;59091;47.446;19.148;2023-10-31T05:34:08;14.87;74.19
71304;DHT22;59091;47.446;19.148;2023-10-31T05:36:33;14.77;73.81
71304;DHT22;59091;47.446;19.148;2023-10-31T05:38:59;14.85;73.45
71304;DHT22;59091;47.446;19.148;2023-10-31T05:41:24;14.85;73.82
71304;DHT22;59091;47.446;19.148;2023-10-31T05:43:50;14.83;74.18
71304;DHT22;59091;47.446;19.148;2023-10-31T05:46:15;14.85;74.48
71304;DHT22;59091;47.446;19.148;2023-10-31T05:48:44;14.84;76.20
71304;DHT22;59091;47.446;19.148;2023-10-31T05:51:14;15.05;78.03
71304;DHT22;59091;47.446;19.148;2023-10-31T05:53:41;15.11;76.78
71304;DHT22;59091;47.446;19.148;2023-10-31T05:56:07;15.11;75.49
71304;DHT22;59091;47.446;19.148;2023-10-31T05:58:33;15.07;75.67
71304;DHT22;59091;47.446;19.148;2023-10-31T06:00:58;14.94;75.94
71304;DHT22;59091;47.446;19.148;2023-10-31T06:03:24;14.95;76.24
71304;DHT22;59091;47.446;19.148;2023-10-31T06:05:49;14.87;76.43
71304;DHT22;59091;47.446;19.148;2023-10-31T06:08:15;14.88;76.54
71304;DHT22;59091;47.446;19.148;2023-10-31T06:10:40;14.79;76.12
71304;DHT22;59091;47.446;19.148;2023-10-31T06:13:06;14.74;75.04
71304;DHT22;59091;47.446;19.148;2023-10-31T06:15:31;14.76;75.13
71304;DHT22;59091;47.446;19.148;2023-10-31T06:17:57;14.50;74.86
71304;DHT22;59091;47.446;19.148;2023-10-31T06:20:23;14.67;74.73
71304;DHT22;59091;47.446;19.148;2023-10-31T06:22:49;14.53;74.51
71304;DHT22;59091;47.446;19.148;2023-10-31T06:25:14;14.64;74.68
71304;DHT22;59091;47.446;19.148;2023-10-31T06:27:39;14.71;74.05
71304;DHT22;59091;47.446;19.148;2023-10-31T06:30:05;14.70;73.39
71304;DHT22;59091;47.446;19.148;2023-10-31T06:32:31;14.77;73.66
71304;DHT22;59091;47.446;19.148;2023-10-31T06:34:56;14.80;73.71
71304;DHT22;59091;47.446;19.148;2023-10-31T06:37:22;14.91;73.41
71304;DHT22;59091;47.446;19.148;2023-10-31T06:39:47;14.93;73.57
71304;DHT22;59091;47.446;19.148;2023-10-31T06:42:13;14.97;73.24
71304;DHT22;59091;47.446;19.148;2023-10-31T06:44:38;14.98;72.79
71304;DHT22;59091;47.446;19.148;2023-10-31T06:47:04;14.90;73.06
71304;DHT22;59091;47.446;19.148;2023-10-31T06:49:29;15.08;73.30
71304;DHT22;59091;47.446;19.148;2023-10-31T06:51:54;15.14;73.41
71304;DHT22;59091;47.446;19.148;2023-10-31T06:54:20;15.21;73.21
71304;DHT22;59091;47.446;19.148;2023-10-31T06:56:46;15.27;73.05
71304;DHT22;59091;47.446;19.148;2023-10-31T06:59:11;15.35;73.09
71304;DHT22;59091;47.446;19.148;2023-10-31T07:01:37;15.39;72.77
71304;DHT22;59091;47.446;19.148;2023-10-31T07:04:04;15.43;73.15
71304;DHT22;59091;47.446;19.148;2023-10-31T07:06:30;15.49;73.27
71304;DHT22;59091;47.446;19.148;2023-10-31T07:08:55;15.48;73.47
71304;DHT22;59091;47.446;19.148;2023-10-31T07:11:22;15.53;73.52
71304;DHT22;59091;47.446;19.148;2023-10-31T07:13:48;15.56;72.72
71304;DHT22;59091;47.446;19.148;2023-10-31T07:16:13;15.59;72.62
71304;DHT22;59091;47.446;19.148;2023-10-31T07:18:39;15.67;73.23
71304;DHT22;59091;47.446;19.148;2023-10-31T07:21:05;15.82;73.35
71304;DHT22;59091;47.446;19.148;2023-10-31T07:23:30;16.00;77.78
71304;DHT22;59091;47.446;19.148;2023-10-31T07:25:56;16.18;75.99
71304;DHT22;59091;47.446;19.148;2023-10-31T07:28:21;16.30;76.09
71304;DHT22;59091;47.446;19.148;2023-10-31T07:30:47;16.41;74.61
71304;DHT22;59091;47.446;19.148;2023-10-31T07:33:12;16.45;73.55
71304;DHT22;59091;47.446;19.148;2023-10-31T07:35:37;16.54;73.13
71304;DHT22;59091;47.446;19.148;2023-10-31T07:38:03;16.60;73.42
71304;DHT22;59091;47.446;19.148;2023-10-31T07:40:28;16.65;73.33
71304;DHT22;59091;47.446;19.148;2023-10-31T07:42:54;16.76;72.97
71304;DHT22;59091;47.446;19.148;2023-10-31T07:45:19;16.82;72.79
71304;DHT22;59091;47.446;19.148;2023-10-31T07:47:45;16.89;72.41
71304;DHT22;59091;47.446;19.148;2023-10-31T07:50:10;16.96;73.21
71304;DHT22;59091;47.446;19.148;2023-10-31T07:52:36;17.01;73.16
71304;DHT22;59091;47.446;19.148;2023-10-31T07:55:01;17.11;72.39
71304;DHT22;59091;47.446;19.148;2023-10-31T07:57:26;17.20;72.77
71304;DHT22;59091;47.446;19.148;2023-10-31T07:59:52;17.35;72.08
71304;DHT22;59091;47.446;19.148;2023-10-31T08:02:17;17.39;70.87
71304;DHT22;59091;47.446;19.148;2023-10-31T08:04:43;17.35;69.48
71304;DHT22;59091;47.446;19.148;2023-10-31T08:07:08;17.36;69.22
71304;DHT22;59091;47.446;19.148;2023-10-31T08:09:34;17.49;69.42
71304;DHT22;59091;47.446;19.148;2023-10-31T08:11:59;17.51;67.74
71304;DHT22;59091;47.446;19.148;2023-10-31T08:14:25;17.56;67.25
71304;DHT22;59091;47.446;19.148;2023-10-31T08:16:50;17.67;67.76
71304;DHT22;59091;47.446;19.148;2023-10-31T08:19:15;17.78;65.99
71304;DHT22;59091;47.446;19.148;2023-10-31T08:21:41;17.94;66.26
71304;DHT22;59091;47.446;19.148;2023-10-31T08:24:07;18.01;65.18
71304;DHT22;59091;47.446;19.148;2023-10-31T08:26:32;18.02;65.01
71304;DHT22;59091;47.446;19.148;2023-10-31T08:28:59;18.12;63.65
71304;DHT22;59091;47.446;19.148;2023-10-31T08:31:24;18.21;63.47
71304;DHT22;59091;47.446;19.148;2023-10-31T08:33:50;18.19;62.91
71304;DHT22;59091;47.446;19.148;2023-10-31T08:36:15;18.27;61.51
71304;DHT22;59091;47.446;19.148;2023-10-31T08:38:41;18.35;60.71
71304;DHT22;59091;47.446;19.148;2023-10-31T08:41:06;18.35;60.45
71304;DHT22;59091;47.446;19.148;2023-10-31T08:43:32;18.48;59.53
71304;DHT22;59091;47.446;19.148;2023-10-31T08:45:57;18.55;58.63
71304;DHT22;59091;47.446;19.148;2023-10-31T08:48:23;18.55;57.98
71304;DHT22;59091;47.446;19.148;2023-10-31T08:50:48;18.69;57.53
71304;DHT22;59091;47.446;19.148;2023-10-31T08:53:14;18.73;57.69
71304;DHT22;59091;47.446;19.148;2023-10-31T08:55:40;18.90;57.13
71304;DHT22;59091;47.446;19.148;2023-10-31T08:58:10;19.03;56.79
71304;DHT22;59091;47.446;19.148;2023-10-31T09:00:36;19.06;57.13
71304;DHT22;59091;47.446;19.148;2023-10-31T09:03:01;19.14;56.54
71304;DHT22;59091;47.446;19.148;2023-10-31T09:05:26;19.28;55.70
71304;DHT22;59091;47.446;19.148;2023-10-31T09:07:52;19.38;57.19
71304;DHT22;59091;47.446;19.148;2023-10-31T09:10:17;19.35;56.32
71304;DHT22;59091;47.446;19.148;2023-10-31T09:12:43;19.54;56.15
71304;DHT22;59091;47.446;19.148;2023-10-31T09:15:08;19.40;54.86
71304;DHT22;59091;47.446;19.148;2023-10-31T09:17:34;19.72;54.79
71304;DHT22;59091;47.446;19.148;2023-10-31T09:20:00;19.77;53.82
71304;DHT22;59091;47.446;19.148;2023-10-31T09:22:25;19.86;54.58
71304;DHT22;59091;47.446;19.148;2023-10-31T09:24:51;19.99;54.71
71304;DHT22;59091;47.446;19.148;2023-10-31T09:27:16;20.15;54.73
71304;DHT22;59091;47.446;19.148;2023-10-31T09:29:41;20.18;54.62
71304;DHT22;59091;47.446;19.148;2023-10-31T09:32:07;20.16;54.10
71304;DHT22;59091;47.446;19.148;2023-10-31T09:34:32;20.30;53.67
71304;DHT22;59091;47.446;19.148;2023-10-31T09:36:58;20.40;53.57
71304;DHT22;59091;47.446;19.148;2023-10-31T09:39:23;20.49;53.31
71304;DHT22;59091;47.446;19.148;2023-10-31T09:41:49;20.59;54.16
71304;DHT22;59091;47.446;19.148;2023-10-31T09:44:14;20.66;53.06
71304;DHT22;59091;47.446;19.148;2023-10-31T09:46:40;20.71;52.90
71304;DHT22;59091;47.446;19.148;2023-10-31T09:49:06;20.87;53.02
71304;DHT22;59091;47.446;19.148;2023-10-31T09:51:33;20.84;51.84
71304;DHT22;59091;47.446;19.148;2023-10-31T09:53:59;20.91;51.39
71304;DHT22;59091;47.446;19.148;2023-10-31T09:56:27;21.05;52.01
71304;DHT22;59091;47.446;19.148;2023-10-31T09:59:00;21.12;51.88
71304;DHT22;59091;47.446;19.148;2023-10-31T10:01:25;21.08;49.93
71304;DHT22;59091;47.446;19.148;2023-10-31T10:03:51;20.91;48.82
71304;DHT22;59091;47.446;19.148;2023-10-31T10:06:17;20.92;49.09
71304;DHT22;59091;47.446;19.148;2023-10-31T10:08:46;21.11;49.40
71304;DHT22;59091;47.446;19.148;2023-10-31T10:11:12;21.21;49.43
71304;DHT22;59091;47.446;19.148;2023-10-31T10:13:37;21.38;49.53
71304;DHT22;59091;47.446;19.148;2023-10-31T10:16:03;21.43;49.24
71304;DHT22;59091;47.446;19.148;2023-10-31T10:18:32;21.62;49.82
71304;DHT22;59091;47.446;19.148;2023-10-31T10:21:04;21.55;49.94
71304;DHT22;59091;47.446;19.148;2023-10-31T10:23:30;21.67;48.53
71304;DHT22;59091;47.446;19.148;2023-10-31T10:25:57;21.67;47.67
71304;DHT22;59091;47.446;19.148;2023-10-31T10:28:23;21.83;51.30
71304;DHT22;59091;47.446;19.148;2023-10-31T10:30:50;21.76;53.38
71304;DHT22;59091;47.446;19.148;2023-10-31T10:33:16;21.80;50.53
71304;DHT22;59091;47.446;19.148;2023-10-31T10:35:43;21.70;49.08
71304;DHT22;59091;47.446;19.148;2023-10-31T10:38:11;21.70;49.21
71304;DHT22;59091;47.446;19.148;2023-10-31T10:40:40;21.83;49.12
71304;DHT22;59091;47.446;19.148;2023-10-31T10:43:20;21.82;48.44
71304;DHT22;59091;47.446;19.148;2023-10-31T10:45:54;21.79;47.58
71304;DHT22;59091;47.446;19.148;2023-10-31T10:48:26;21.89;47.07
71304;DHT22;59091;47.446;19.148;2023-10-31T10:51:29;22.02;47.05
71304;DHT22;59091;47.446;19.148;2023-10-31T10:54:49;22.02;47.32
71304;DHT22;59091;47.446;19.148;2023-10-31T10:56:54;22.09;46.49
71304;DHT22;59091;47.446;19.148;2023-10-31T10:59:48;22.10;47.68
71304;DHT22;59091;47.446;19.148;2023-10-31T11:02:17;22.14;46.91
71304;DHT22;59091;47.446;19.148;2023-10-31T11:04:43;22.34;46.54
71304;DHT22;59091;47.446;19.148;2023-10-31T11:07:09;22.36;45.25
71304;DHT22;59091;47.446;19.148;2023-10-31T11:09:35;22.34;45.63
71304;DHT22;59091;47.446;19.148;2023-10-31T11:12:02;22.47;45.97
71304;DHT22;59091;47.446;19.148;2023-10-31T11:14:29;22.37;46.52
71304;DHT22;59091;47.446;19.148;2023-10-31T11:16:59;22.54;46.13
71304;DHT22;59091;47.446;19.148;2023-10-31T11:19:27;22.61;46.47
71304;DHT22;59091;47.446;19.148;2023-10-31T11:24:21;22.47;46.15
71304;DHT22;59091;47.446;19.148;2023-10-31T11:26:52;22.43;46.47
71304;DHT22;59091;47.446;19.148;2023-10-31T11:29:18;22.34;46.90
71304;DHT22;59091;47.446;19.148;2023-10-31T11:31:43;22.29;47.18
71304;DHT22;59091;47.446;19.148;2023-10-31T11:34:09;22.24;47.72
71304;DHT22;59091;47.446;19.148;2023-10-31T11:36:37;22.23;48.53
71304;DHT22;59091;47.446;19.148;2023-10-31T11:39:23;22.07;49.54
71304;DHT22;59091;47.446;19.148;2023-10-31T11:41:55;22.06;47.01
71304;DHT22;59091;47.446;19.148;2023-10-31T11:44:27;22.03;47.14
71304;DHT22;59091;47.446;19.148;2023-10-31T11:46:52;21.99;46.17
71304;DHT22;59091;47.446;19.148;2023-10-31T11:49:47;21.83;46.63
71304;DHT22;59091;47.446;19.148;2023-10-31T11:52:16;21.59;47.45
71304;DHT22;59091;47.446;19.148;2023-10-31T11:54:42;21.59;47.63
71304;DHT22;59091;47.446;19.148;2023-10-31T11:57:08;21.37;47.74
71304;DHT22;59091;47.446;19.148;2023-10-31T11:59:38;20.91;48.16
71304;DHT22;59091;47.446;19.148;2023-10-31T12:02:16;20.88;48.21
71304;DHT22;59091;47.446;19.148;2023-10-31T12:04:41;20.81;48.56
71304;DHT22;59091;47.446;19.148;2023-10-31T12:07:08;20.67;48.67
71304;DHT22;59091;47.446;19.148;2023-10-31T12:09:45;20.64;48.65
71304;DHT22;59091;47.446;19.148;2023-10-31T12:12:11;20.54;49.07
71304;DHT22;59091;47.446;19.148;2023-10-31T12:14:36;20.51;49.45
71304;DHT22;59091;47.446;19.148;2023-10-31T12:17:07;20.54;49.89
71304;DHT22;59091;47.446;19.148;2023-10-31T12:19:34;20.49;56.13
71304;DHT22;59091;47.446;19.148;2023-10-31T12:22:00;20.40;52.93
71304;DHT22;59091;47.446;19.148;2023-10-31T12:24:27;20.29;52.59
71304;DHT22;59091;47.446;19.148;2023-10-31T12:26:52;19.93;54.82
71304;DHT22;59091;47.446;19.148;2023-10-31T12:29:20;19.72;58.31
71304;DHT22;59091;47.446;19.148;2023-10-31T12:31:50;19.37;63.98
71304;DHT22;59091;47.446;19.148;2023-10-31T12:34:19;18.51;67.93
71304;DHT22;59091;47.446;19.148;2023-10-31T12:36:50;17.98;68.17
71304;DHT22;59091;47.446;19.148;2023-10-31T12:39:20;17.40;68.77
71304;DHT22;59091;47.446;19.148;2023-10-31T12:41:47;17.39;70.80
71304;DHT22;59091;47.446;19.148;2023-10-31T12:44:19;17.27;72.09
71304;DHT22;59091;47.446;19.148;2023-10-31T12:46:46;16.81;74.28
71304;DHT22;59091;47.446;19.148;2023-10-31T12:49:12;16.68;74.60
71304;DHT22;59091;47.446;19.148;2023-10-31T12:56:59;16.79;73.95
71304;DHT22;59091;47.446;19.148;2023-10-31T12:59:24;16.85;73.87
71304;DHT22;59091;47.446;19.148;2023-10-31T13:01:50;16.99;73.48
71304;DHT22;59091;47.446;19.148;2023-10-31T13:04:27;16.94;75.20
71304;DHT22;59091;47.446;19.148;2023-10-31T13:07:00;17.02;75.03
71304;DHT22;59091;47.446;19.148;2023-10-31T13:09:34;17.12;74.74
71304;DHT22;59091;47.446;19.148;2023-10-31T13:12:02;17.15;74.87
71304;DHT22;59091;47.446;19.148;2023-10-31T13:14:28;17.19;75.03
71304;DHT22;59091;47.446;19.148;2023-10-31T13:16:54;17.19;75.02
71304;DHT22;59091;47.446;19.148;2023-10-31T13:19:19;17.22;74.68
71304;DHT22;59091;47.446;19.148;2023-10-31T13:21:47;17.27;74.72
71304;DHT22;59091;47.446;19.148;2023-10-31T13:24:12;17.33;75.56
71304;DHT22;59091;47.446;19.148;2023-10-31T13:26:38;17.37;74.96
71304;DHT22;59091;47.446;19.148;2023-10-31T13:29:03;17.54;78.94
71304;DHT22;59091;47.446;19.148;2023-10-31T13:31:29;17.59;76.34
71304;DHT22;59091;47.446;19.148;2023-10-31T13:33:54;17.54;75.02
71304;DHT22;59091;47.446;19.148;2023-10-31T13:36:19;17.40;74.98
71304;DHT22;59091;47.446;19.148;2023-10-31T13:38:46;17.33;74.92
71304;DHT22;59091;47.446;19.148;2023-10-31T13:41:12;17.12;75.55
71304;DHT22;59091;47.446;19.148;2023-10-31T13:43:37;16.75;76.06
71304;DHT22;59091;47.446;19.148;2023-10-31T13:46:03;16.40;77.70
71304;DHT22;59091;47.446;19.148;2023-10-31T13:48:29;15.94;79.30
71304;DHT22;59091;47.446;19.148;2023-10-31T13:50:54;15.70;80.22
71304;DHT22;59091;47.446;19.148;2023-10-31T13:53:20;15.67;80.49
71304;DHT22;59091;47.446;19.148;2023-10-31T13:55:45;15.45;80.56
71304;DHT22;59091;47.446;19.148;2023-10-31T13:58:11;15.14;80.44
71304;DHT22;59091;47.446;19.148;2023-10-31T14:00:36;15.05;80.55
71304;DHT22;59091;47.446;19.148;2023-10-31T14:03:02;15.07;80.51
71304;DHT22;59091;47.446;19.148;2023-10-31T14:05:27;15.15;79.98
71304;DHT22;59091;47.446;19.148;2023-10-31T14:07:53;15.17;79.83
71304;DHT22;59091;47.446;19.148;2023-10-31T14:10:19;15.20;79.87
71304;DHT22;59091;47.446;19.148;2023-10-31T14:12:46;15.36;79.31
71304;DHT22;59091;47.446;19.148;2023-10-31T14:15:12;15.38;79.16
71304;DHT22;59091;47.446;19.148;2023-10-31T14:17:37;15.10;80.24
71304;DHT22;59091;47.446;19.148;2023-10-31T14:20:03;15.04;80.13
71304;DHT22;59091;47.446;19.148;2023-10-31T14:22:29;15.08;80.02
71304;DHT22;59091;47.446;19.148;2023-10-31T14:24:55;15.07;79.71
71304;DHT22;59091;47.446;19.148;2023-10-31T14:27:20;15.07;79.87
71304;DHT22;59091;47.446;19.148;2023-10-31T14:29:45;15.04;80.22
71304;DHT22;59091;47.446;19.148;2023-10-31T14:32:11;15.20;79.73
71304;DHT22;59091;47.446;19.148;2023-10-31T14:34:36;15.24;78.94
71304;DHT22;59091;47.446;19.148;2023-10-31T14:37:02;15.18;78.08
71304;DHT22;59091;47.446;19.148;2023-10-31T14:39:28;15.24;77.77
71304;DHT22;59091;47.446;19.148;2023-10-31T14:41:54;15.18;77.81
71304;DHT22;59091;47.446;19.148;2023-10-31T14:44:20;15.14;77.74
71304;DHT22;59091;47.446;19.148;2023-10-31T14:46:46;15.21;77.69
71304;DHT22;59091;47.446;19.148;2023-10-31T14:49:12;15.24;77.74
71304;DHT22;59091;47.446;19.148;2023-10-31T14:51:37;15.20;77.81
71304;DHT22;59091;47.446;19.148;2023-10-31T14:54:03;15.15;77.72
71304;DHT22;59091;47.446;19.148;2023-10-31T14:56:28;15.15;76.92
71304;DHT22;59091;47.446;19.148;2023-10-31T14:58:55;15.20;76.66
71304;DHT22;59091;47.446;19.148;2023-10-31T15:01:20;15.08;76.94
71304;DHT22;59091;47.446;19.148;2023-10-31T15:03:46;14.98;76.90
71304;DHT22;59091;47.446;19.148;2023-10-31T15:06:11;14.93;77.27
71304;DHT22;59091;47.446;19.148;2023-10-31T15:08:37;14.79;77.43
71304;DHT22;59091;47.446;19.148;2023-10-31T15:11:03;14.81;77.96
71304;DHT22;59091;47.446;19.148;2023-10-31T15:13:28;14.71;78.24
71304;DHT22;59091;47.446;19.148;2023-10-31T15:15:53;14.63;77.99
71304;DHT22;59091;47.446;19.148;2023-10-31T15:18:19;14.67;77.99